Time;durP1;ratioP1;P1;durP2;ratioP2;P2;SDS_P1;SDS_P2;PMS_P1;PMS_P2;Temp;Humidity;BMP_temperature;BMP_pressure;BME280_temperature;BME280_humidity;BME280_pressure;Samples;Min_cycle;Max_cycle;Signal;HPM_P1;HPM_P2
2023/09/09 00:10:49;;;;;;;4.63;2.80;;;;;;;21.36;51.41;100232.38;31941201;27;20598;-77
2023/09/09 00:25:52;;;;;;;3.70;1.80;;;;;;;21.21;52.09;100223.47;31978026;27;20104;-79
2023/09/09 00:41:10;;;;;;;4.03;1.75;;;;;;;21.18;53.14;100210.59;31991005;27;20054;-77
2023/09/09 00:56:12;;;;;;;6.60;1.60;;;;;;;21.02;52.63;100213.97;31988676;27;20125;-78
2023/09/09 01:11:14;;;;;;;6.38;1.88;;;;;;;20.97;52.72;100200.88;32001012;27;20146;-78
2023/09/09 01:26:17;;;;;;;5.25;1.80;;;;;;;20.99;53.17;100198.41;31998622;27;20053;-78
2023/09/09 01:41:19;;;;;;;5.70;2.10;;;;;;;20.87;53.47;100180.97;31975778;27;20051;-78
2023/09/09 01:56:21;;;;;;;7.07;1.80;;;;;;;20.79;53.33;100162.59;31997251;27;20039;-79
2023/09/09 02:11:23;;;;;;;4.57;1.80;;;;;;;20.72;53.42;100159.00;31979450;27;20057;-78
2023/09/09 02:26:26;;;;;;;10.63;2.20;;;;;;;20.67;53.46;100156.19;31979960;27;20047;-78
2023/09/09 02:41:29;;;;;;;3.72;1.58;;;;;;;20.47;53.27;100153.47;31992362;27;20047;-81
2023/09/09 02:56:31;;;;;;;5.38;2.45;;;;;;;20.33;53.69;100144.75;31963914;27;20548;-79
2023/09/09 03:11:33;;;;;;;10.15;3.25;;;;;;;20.44;53.68;100133.13;31980158;27;20078;-80
2023/09/09 03:26:35;;;;;;;6.50;2.60;;;;;;;20.52;53.06;100128.72;31966496;27;20051;-77
2023/09/09 03:41:40;;;;;;;11.15;5.88;;;;;;;20.43;53.52;100142.66;31970581;27;20055;-88
2023/09/09 03:56:42;;;;;;;9.45;2.50;;;;;;;20.20;54.15;100151.88;31970165;27;20046;-78
2023/09/09 04:11:44;;;;;;;8.82;2.40;;;;;;;20.35;54.68;100152.56;31994172;27;20133;-77
2023/09/09 04:26:47;;;;;;;13.07;3.20;;;;;;;20.81;54.83;100154.56;31961233;27;20064;-80
2023/09/09 04:41:50;;;;;;;4.75;2.75;;;;;;;21.13;54.46;100150.59;31994667;27;20129;-83
2023/09/09 04:56:52;;;;;;;11.85;3.15;;;;;;;21.17;54.96;100153.13;32033497;27;20534;-84
2023/09/09 05:11:54;;;;;;;9.93;3.35;;;;;;;21.63;55.35;100147.44;32016765;27;20078;-85
2023/09/09 05:26:56;;;;;;;8.95;3.78;;;;;;;22.73;54.10;100143.59;32001840;27;20162;-83
2023/09/09 05:41:58;;;;;;;9.68;3.97;;;;;;;23.77;53.55;100153.66;32047286;27;20144;-86
2023/09/09 05:57:03;;;;;;;9.07;3.78;;;;;;;24.92;50.98;100169.50;32015118;27;20104;-87
2023/09/09 06:12:05;;;;;;;10.95;3.28;;;;;;;25.96;48.75;100162.78;31968328;27;20806;-88
2023/09/09 06:27:08;;;;;;;7.07;3.20;;;;;;;26.43;48.45;100165.25;31989182;27;20047;-79
2023/09/09 06:42:13;;;;;;;8.82;2.90;;;;;;;27.57;45.17;100166.50;31982173;27;20589;-80
2023/09/09 06:57:18;;;;;;;4.55;2.05;;;;;;;28.29;43.12;100172.72;31979567;27;20046;-81
2023/09/09 07:12:25;;;;;;;8.63;3.08;;;;;;;27.99;43.16;100178.63;31947718;27;20054;-86
2023/09/09 07:27:27;;;;;;;5.03;2.40;;;;;;;28.65;41.88;100176.47;31979120;27;20051;-86
2023/09/09 07:42:29;;;;;;;4.43;1.50;;;;;;;29.37;39.69;100162.81;32059498;27;20055;-86
2023/09/09 07:57:32;;;;;;;6.20;2.90;;;;;;;30.00;39.82;100197.00;32007778;27;20286;-87
2023/09/09 08:12:35;;;;;;;8.45;2.28;;;;;;;29.64;40.89;100205.34;31982563;27;20070;-83
2023/09/09 08:27:37;;;;;;;6.05;2.90;;;;;;;29.56;41.48;100223.38;32013135;27;20082;-86
2023/09/09 08:43:05;;;;;;;10.63;2.17;;;;;;;29.25;42.11;100222.34;31952344;27;20062;-78
2023/09/09 08:58:08;;;;;;;7.15;2.28;;;;;;;29.75;41.05;100232.28;31964647;27;20688;-81
2023/09/09 09:13:10;;;;;;;9.82;2.78;;;;;;;27.54;44.14;100256.75;31947290;27;20101;-80
2023/09/09 09:28:16;;;;;;;9.80;2.47;;;;;;;27.76;44.02;100292.66;31981683;27;20043;-81
2023/09/09 09:43:20;;;;;;;3.50;1.75;;;;;;;28.23;41.84;100298.44;31975785;27;20144;-80
2023/09/09 09:58:32;;;;;;;4.60;3.85;;;;;;;29.41;39.80;100310.69;31976339;27;20388;-81
2023/09/09 10:13:56;;;;;;;3.30;2.10;;;;;;;29.06;40.95;100318.31;31982819;27;20100;-88
2023/09/09 10:29:01;;;;;;;3.95;1.48;;;;;;;29.23;38.48;100334.72;31966108;27;20047;-80
2023/09/09 10:44:03;;;;;;;7.15;3.60;;;;;;;29.71;38.49;100338.19;31968077;27;20047;-82
2023/09/09 10:59:21;;;;;;;12.27;1.75;;;;;;;28.71;37.50;100363.50;31958591;27;20043;-80
2023/09/09 11:14:31;;;;;;;5.95;1.50;;;;;;;29.28;36.52;100359.00;31993562;27;20039;-82
2023/09/09 11:29:38;;;;;;;7.93;1.17;;;;;;;29.07;33.88;100374.94;32005846;27;20373;-82
2023/09/09 11:44:41;;;;;;;6.80;1.90;;;;;;;29.98;32.88;100392.75;31955786;27;20046;-83
2023/09/09 11:59:51;;;;;;;3.97;1.85;;;;;;;27.83;33.00;100381.31;31990865;27;20098;-82
2023/09/09 12:14:59;;;;;;;2.53;1.02;;;;;;;26.05;35.21;100404.38;31993395;27;20053;-84
2023/09/09 12:30:03;;;;;;;5.22;1.08;;;;;;;25.19;35.45;100409.47;31983874;27;20043;-82
2023/09/09 12:45:10;;;;;;;3.13;0.85;;;;;;;24.94;36.07;100427.22;31955420;27;20047;-82
2023/09/09 13:00:12;;;;;;;2.33;1.02;;;;;;;24.45;36.68;100437.94;31989636;27;20051;-83
2023/09/09 13:15:15;;;;;;;2.67;0.80;;;;;;;24.17;36.16;100445.47;31964651;27;20047;-83
2023/09/09 13:30:17;;;;;;;2.38;1.60;;;;;;;24.14;36.31;100470.19;31947593;27;20045;-83
2023/09/09 13:45:20;;;;;;;9.50;0.80;;;;;;;23.82;36.37;100488.31;31970825;27;20074;-82
2023/09/09 14:00:25;;;;;;;2.33;0.63;;;;;;;23.54;36.80;100484.69;31937574;27;20100;-84
2023/09/09 14:15:28;;;;;;;4.50;0.80;;;;;;;23.31;37.51;100495.66;31972828;27;20050;-82
2023/09/09 14:30:30;;;;;;;4.93;1.92;;;;;;;23.13;38.37;100518.22;31995808;27;20173;-80
2023/09/09 14:45:32;;;;;;;1.42;0.70;;;;;;;22.99;38.84;100541.28;31952915;27;20058;-78
2023/09/09 15:00:34;;;;;;;1.13;0.90;;;;;;;22.61;39.52;100543.25;31950524;27;20053;-79
2023/09/09 15:15:38;;;;;;;9.77;4.65;;;;;;;22.27;39.33;100578.13;31996741;27;20042;-79
2023/09/09 15:30:40;;;;;;;6.43;3.93;;;;;;;22.07;39.46;100592.75;31955370;27;20045;-78
2023/09/09 15:45:42;;;;;;;3.78;1.30;;;;;;;21.69;39.78;100623.44;31993260;27;20066;-81
2023/09/09 16:00:47;;;;;;;3.60;2.58;;;;;;;21.34;39.70;100631.72;31968903;27;20046;-81
2023/09/09 16:15:57;;;;;;;3.67;2.20;;;;;;;21.20;40.49;100652.59;32000483;27;20119;-75
2023/09/09 16:31:07;;;;;;;2.53;1.40;;;;;;;20.97;41.47;100670.00;32013301;27;20066;-90
2023/09/09 16:46:34;;;;;;;2.25;1.40;;;;;;;20.71;41.68;100703.69;32059679;27;20070;-84
2023/09/09 17:01:36;;;;;;;1.83;1.35;;;;;;;20.42;42.38;100731.19;32030248;27;20056;-85
2023/09/09 17:16:39;;;;;;;2.22;1.77;;;;;;;20.31;43.07;100758.50;32023775;27;20051;-85
2023/09/09 17:31:41;;;;;;;2.78;1.67;;;;;;;20.17;43.40;100759.97;32032205;27;20480;-87
2023/09/09 17:46:44;;;;;;;3.42;1.88;;;;;;;20.14;44.05;100785.69;32039706;27;20510;-85
2023/09/09 18:01:48;;;;;;;3.70;1.50;;;;;;;20.05;45.07;100802.31;31999534;27;20093;-84
2023/09/09 18:16:50;;;;;;;2.13;1.53;;;;;;;20.02;44.99;100809.50;32031840;27;20211;-88
2023/09/09 18:31:52;;;;;;;4.25;2.75;;;;;;;19.79;45.01;100817.72;31978408;27;20103;-89
2023/09/09 18:46:58;;;;;;;4.40;2.87;;;;;;;19.65;44.76;100830.91;32020622;27;20050;-85
2023/09/09 19:02:03;;;;;;;3.38;1.58;;;;;;;19.61;44.80;100843.28;32017838;27;20052;-86
2023/09/09 19:17:05;;;;;;;3.35;1.58;;;;;;;19.60;45.16;100852.81;32002645;27;20107;-85
2023/09/09 19:32:07;;;;;;;3.65;1.90;;;;;;;19.28;46.27;100863.22;31974164;27;20078;-82
2023/09/09 19:47:10;;;;;;;4.10;1.73;;;;;;;19.06;46.95;100871.63;31992485;27;20515;-85
2023/09/09 20:02:13;;;;;;;4.07;1.80;;;;;;;18.61;47.82;100875.09;31969108;27;20051;-82
2023/09/09 20:17:16;;;;;;;3.65;2.00;;;;;;;18.44;49.11;100881.25;31975565;27;20419;-83
2023/09/09 20:32:18;;;;;;;5.43;2.43;;;;;;;18.18;49.52;100881.47;32005625;27;20507;-91
2023/09/09 20:47:21;;;;;;;5.73;2.33;;;;;;;17.97;50.38;100885.78;32008874;27;20063;-85
2023/09/09 21:02:26;;;;;;;3.37;2.60;;;;;;;17.90;50.23;100891.56;31960439;27;20051;-86
2023/09/09 21:17:32;;;;;;;3.60;2.40;;;;;;;17.75;50.94;100890.53;31975847;27;20086;-85
2023/09/09 21:32:37;;;;;;;3.80;2.20;;;;;;;17.51;51.73;100909.41;31993189;27;20394;-88
2023/09/09 21:47:39;;;;;;;7.35;2.80;;;;;;;17.37;52.45;100918.94;31976577;27;20141;-87
2023/09/09 22:02:41;;;;;;;3.13;1.83;;;;;;;17.20;53.21;100901.09;31968370;27;20055;-86
2023/09/09 22:17:44;;;;;;;5.17;2.70;;;;;;;16.99;54.07;100890.84;31957846;27;20128;-85
2023/09/09 22:32:48;;;;;;;4.30;2.57;;;;;;;16.78;54.54;100900.53;31970484;27;20042;-84
2023/09/09 22:47:50;;;;;;;7.73;3.27;;;;;;;16.60;54.31;100909.31;31975338;27;20457;-84
2023/09/09 23:02:52;;;;;;;7.90;3.47;;;;;;;16.50;53.97;100909.66;31965665;27;20046;-84
2023/09/09 23:17:55;;;;;;;7.67;3.03;;;;;;;16.42;54.37;100911.84;31952149;27;20054;-78
2023/09/09 23:33:00;;;;;;;4.67;3.23;;;;;;;16.37;54.69;100910.41;31987815;27;20050;-77
2023/09/09 23:48:02;;;;;;;8.17;3.50;;;;;;;16.12;54.72;100906.88;31944032;27;20121;-78
